Portada
METAR-TAF:

METAR-TAF

Aeroports :

Kokshetau, Kazakhstan

latitud: 53-19-48N, longitud: 069-35-48E, altitud: 270 m

Observació

L'informe es va fer fa 43 minuts, a les 08:30 UTC
Vent 16 kt del Oest
Temperatura 1°C
Humitat 75%
Pressió 1022 hPa
Visibilitat 10 km o més
sense núvols per sota de 1500 mi sense presència de cumulonimbus.

METAR: UACK 120830Z 26008MPS CAVOK 01/M03 Q1022 R20/390150 NOSIG RMK QFE743/0990

Hora: 15:13 (09:13 UTC)

Pronòstic

L'informe es va fer fa 1 hora i 13 minuts, a les 08:00 UTC
Pronòstic vàlid del 12 a les 09 UTC al 12 a les 18 UTC
Vent 14 kt del Oest/Sud-Oest
Visibilitat 10 km o més
Núvols disperses a una alçada de 1000 ft
Cel ennuvolat a una alçada de 10000 ft

TAF: UACK 120800Z 1209/1218 25007MPS 9999 SCT010 BKN100

Observacions i pronòstics meteorològics de més de 4000 aeroports (METAR i TAF).

Les estacions disponibles són els punts grocs i vermells al mapa.

Posi el ratolí al punt desitjat per veure el nom de l'estació.

Feu clic per veure les observacions i els pronòstics meteorològics.

Per canviar el mapa: feu clic els botons verds amb una creu de color negre per apropar; al botó verd amb un guió per allunyar la imatge; o en les fletxes verdes per a mapes adjacents.


METAR-TAF: